Time;durP1;ratioP1;P1;durP2;ratioP2;P2;SDS_P1;SDS_P2;PMS_P1;PMS_P2;Temp;Humidity;BMP_temperature;BMP_pressure;BME280_temperature;BME280_humidity;BME280_pressure;Samples;Min_cycle;Max_cycle;Signal;HPM_P1;HPM_P2
2022/10/30 00:02:07;;;;;;;13.83;9.00;;;15.70;1.00;;;;;;4971144;28;20184;-67
2022/10/30 00:04:32;;;;;;;21.70;9.87;;;15.70;99.90;;;;;;4972270;28;20177;-68
2022/10/30 00:06:58;;;;;;;21.17;9.93;;;15.70;99.90;;;;;;4971634;28;20240;-66
2022/10/30 00:09:24;;;;;;;36.00;11.27;;;15.70;99.90;;;;;;4971830;28;20232;-66
2022/10/30 00:11:49;;;;;;;20.40;8.37;;;15.70;99.90;;;;;;4970688;28;20573;-67
2022/10/30 00:14:15;;;;;;;15.50;8.70;;;15.70;99.90;;;;;;4972265;28;20181;-65
2022/10/30 00:16:40;;;;;;;15.20;8.87;;;15.80;99.90;;;;;;4971514;28;20253;-67
2022/10/30 00:19:06;;;;;;;16.20;9.77;;;15.70;99.90;;;;;;4971414;28;20170;-65
2022/10/30 00:21:32;;;;;;;12.93;8.80;;;15.70;99.90;;;;;;4971489;28;20678;-65
2022/10/30 00:23:57;;;;;;;26.53;9.60;;;15.70;99.90;;;;;;4971929;28;20165;-66
2022/10/30 00:26:24;;;;;;;42.53;11.23;;;15.70;99.90;;;;;;4971936;28;20189;-66
2022/10/30 00:28:51;;;;;;;41.60;11.80;;;15.60;99.90;;;;;;4971669;28;20284;-68
2022/10/30 00:31:17;;;;;;;32.63;11.73;;;15.60;99.90;;;;;;4970892;28;20445;-66
2022/10/30 00:33:43;;;;;;;30.17;10.03;;;15.70;99.90;;;;;;4971423;28;20427;-65
2022/10/30 00:36:08;;;;;;;24.00;9.57;;;15.60;99.90;;;;;;4971535;28;20173;-65
2022/10/30 00:38:34;;;;;;;14.40;8.70;;;15.60;99.90;;;;;;4971304;28;20178;-66
2022/10/30 00:41:00;;;;;;;29.40;10.67;;;15.60;99.90;;;;;;4970981;28;20240;-65
2022/10/30 00:43:37;;;;;;;14.83;8.60;;;15.60;99.90;;;;;;4971511;28;20228;-65
2022/10/30 00:46:15;;;;;;;17.63;9.20;;;15.60;99.90;;;;;;4971409;28;20177;-65
2022/10/30 00:48:44;;;;;;;16.63;9.40;;;15.50;99.90;;;;;;4970568;28;20464;-66
2022/10/30 00:51:11;;;;;;;19.90;10.33;;;15.40;99.90;;;;;;4970612;28;21007;-66
2022/10/30 00:53:37;;;;;;;15.20;9.43;;;15.40;99.90;;;;;;4971067;28;20424;-66
2022/10/30 00:56:06;;;;;;;19.27;8.80;;;15.40;99.90;;;;;;4970929;28;20826;-66
2022/10/30 00:58:36;;;;;;;17.77;10.30;;;15.40;99.90;;;;;;4971046;28;20728;-66
2022/10/30 01:01:08;;;;;;;16.87;7.80;;;15.40;99.90;;;;;;4970183;28;20535;-66
2022/10/30 01:03:35;;;;;;;15.90;9.57;;;15.20;99.90;;;;;;4970473;28;20472;-66
2022/10/30 01:06:05;;;;;;;35.67;10.30;;;15.20;99.90;;;;;;4971184;28;20848;-66
2022/10/30 01:08:32;;;;;;;18.53;8.63;;;15.20;99.90;;;;;;4970541;28;20479;-66
2022/10/30 01:11:00;;;;;;;13.97;8.37;;;15.20;99.90;;;;;;4969917;28;20468;-68
2022/10/30 01:13:27;;;;;;;12.70;8.07;;;15.20;99.90;;;;;;4970845;28;20842;-66
2022/10/30 01:16:31;;;;;;;15.63;7.90;;;15.20;99.90;;;;;;4971109;28;20421;-66
2022/10/30 01:19:37;;;;;;;14.93;8.27;;;15.10;99.90;;;;;;4963688;28;20443;-67
2022/10/30 01:22:09;;;;;;;16.67;8.30;;;15.10;99.90;;;;;;4970213;28;20512;-67
2022/10/30 01:25:13;;;;;;;23.90;7.93;;;15.10;1.00;;;;;;4970133;28;20425;-68
2022/10/30 01:27:57;;;;;;;11.20;7.57;;;15.10;1.00;;;;;;4970668;28;20452;-66
2022/10/30 01:30:50;;;;;;;11.33;7.90;;;15.00;1.00;;;;;;4970030;28;20914;-66
2022/10/30 01:33:30;;;;;;;15.93;7.67;;;15.00;1.00;;;;;;4970457;28;20510;-67
2022/10/30 01:36:36;;;;;;;11.40;7.47;;;15.00;1.00;;;;;;4970539;28;20428;-67
2022/10/30 01:39:17;;;;;;;13.43;8.27;;;14.90;1.00;;;;;;4970451;28;21005;-66
2022/10/30 01:41:44;;;;;;;17.10;8.30;;;15.00;1.00;;;;;;4969810;28;20417;-67
2022/10/30 01:44:17;;;;;;;9.70;7.30;;;14.90;1.00;;;;;;4970561;28;20503;-67
2022/10/30 01:46:49;;;;;;;17.67;8.70;;;14.90;1.00;;;;;;4969800;28;20424;-66
2022/10/30 01:49:55;;;;;;;10.50;8.57;;;14.90;1.00;;;;;;4970572;28;20446;-68
2022/10/30 01:52:42;;;;;;;16.90;8.70;;;14.90;1.00;;;;;;4928713;29;20466;-65
2022/10/30 01:55:17;;;;;;;12.37;8.20;;;14.90;1.00;;;;;;4967779;28;20439;-66
2022/10/30 01:58:00;;;;;;;19.07;8.17;;;14.90;1.00;;;;;;4970288;28;20510;-65
2022/10/30 02:00:27;;;;;;;15.00;7.60;;;14.90;1.00;;;;;;4969889;28;20960;-66
2022/10/30 02:02:53;;;;;;;38.27;10.30;;;14.80;1.00;;;;;;4961282;28;20427;-66
2022/10/30 02:05:40;;;;;;;27.90;9.63;;;14.90;1.00;;;;;;4961812;28;20420;-66
2022/10/30 02:08:06;;;;;;;12.57;8.10;;;14.90;1.00;;;;;;4970171;28;20460;-66
2022/10/30 02:10:35;;;;;;;15.00;8.27;;;14.90;1.00;;;;;;5007646;23;20639;-65
2022/10/30 02:13:01;;;;;;;21.60;8.13;;;14.80;1.00;;;;;;5009323;28;20419;-65
2022/10/30 02:15:28;;;;;;;17.83;8.63;;;14.80;1.00;;;;;;5009581;28;20399;-69
2022/10/30 02:17:55;;;;;;;21.20;8.70;;;14.80;1.00;;;;;;5008945;28;20414;-67
2022/10/30 02:20:20;;;;;;;10.37;7.70;;;14.80;1.00;;;;;;5006834;28;20463;-67
2022/10/30 02:22:46;;;;;;;21.87;8.03;;;14.80;1.00;;;;;;4999618;28;20439;-67
2022/10/30 02:25:13;;;;;;;10.50;8.20;;;14.70;1.00;;;;;;5004036;28;20170;-69
2022/10/30 02:27:38;;;;;;;11.67;8.90;;;14.80;1.00;;;;;;5005937;28;20490;-68
2022/10/30 02:30:05;;;;;;;12.67;7.63;;;14.70;1.00;;;;;;4991802;28;20494;-67
2022/10/30 02:32:31;;;;;;;18.40;8.83;;;14.70;1.00;;;;;;5013389;28;20197;-67
2022/10/30 02:34:57;;;;;;;31.73;8.87;;;14.70;1.00;;;;;;5009277;28;20420;-67
2022/10/30 02:37:23;;;;;;;15.57;7.47;;;14.70;1.00;;;;;;5005349;28;20434;-68
2022/10/30 02:39:49;;;;;;;12.00;7.90;;;14.60;1.00;;;;;;5002998;28;20553;-68
2022/10/30 02:42:15;;;;;;;16.87;8.90;;;14.60;1.00;;;;;;5008397;28;20449;-68
2022/10/30 02:44:40;;;;;;;14.90;8.23;;;14.60;1.00;;;;;;4993688;28;20501;-67
2022/10/30 02:47:06;;;;;;;33.77;9.30;;;14.60;1.00;;;;;;4992672;28;20247;-66
2022/10/30 02:49:32;;;;;;;23.27;9.23;;;14.60;1.00;;;;;;5010716;28;20575;-66
2022/10/30 02:51:57;;;;;;;16.90;7.80;;;14.70;1.00;;;;;;5008628;28;20264;-67
2022/10/30 02:54:24;;;;;;;21.20;8.10;;;14.70;1.00;;;;;;5001209;28;20276;-65
2022/10/30 02:56:50;;;;;;;15.30;7.50;;;14.70;1.00;;;;;;5001402;28;20185;-67
2022/10/30 02:59:16;;;;;;;13.00;7.43;;;14.70;1.00;;;;;;5003778;28;20422;-66
2022/10/30 03:01:42;;;;;;;10.17;6.83;;;14.70;1.00;;;;;;5007997;28;20458;-65
2022/10/30 03:04:07;;;;;;;13.67;7.17;;;14.60;1.00;;;;;;4997669;28;20176;-65
2022/10/30 03:06:33;;;;;;;9.73;7.27;;;14.50;1.00;;;;;;5003426;28;20195;-65
2022/10/30 03:08:59;;;;;;;17.50;7.50;;;14.60;1.00;;;;;;5011678;28;20283;-66
2022/10/30 03:11:24;;;;;;;12.77;7.40;;;14.50;1.00;;;;;;4999613;28;20465;-68
2022/10/30 03:13:51;;;;;;;9.50;7.43;;;14.50;1.00;;;;;;4992633;28;20169;-67
2022/10/30 03:16:19;;;;;;;11.17;7.97;;;14.40;1.00;;;;;;5007142;28;20172;-66
2022/10/30 03:18:46;;;;;;;18.13;7.50;;;14.40;1.00;;;;;;5009282;28;20487;-68
2022/10/30 03:21:14;;;;;;;14.70;7.50;;;14.30;1.00;;;;;;4994394;28;20447;-67
2022/10/30 03:23:40;;;;;;;12.83;7.20;;;14.40;1.00;;;;;;5011208;28;20426;-68
2022/10/30 03:26:06;;;;;;;12.47;7.00;;;14.40;1.00;;;;;;5004172;28;20420;-70
2022/10/30 03:28:33;;;;;;;17.13;9.07;;;14.30;1.00;;;;;;5009908;28;20315;-69
2022/10/30 03:31:09;;;;;;;8.53;6.80;;;14.30;1.00;;;;;;5007383;28;20833;-68
2022/10/30 03:33:37;;;;;;;19.20;8.67;;;14.40;1.00;;;;;;4991856;28;20900;-67
2022/10/30 03:36:05;;;;;;;12.33;7.50;;;14.30;1.00;;;;;;5000647;28;20500;-68
2022/10/30 03:38:31;;;;;;;9.53;7.23;;;14.30;1.00;;;;;;5003179;28;20424;-68
2022/10/30 03:40:57;;;;;;;14.03;7.20;;;14.40;1.00;;;;;;5005754;28;20799;-68
2022/10/30 03:43:23;;;;;;;19.87;7.33;;;14.40;1.00;;;;;;4999950;28;20416;-68
2022/10/30 03:45:51;;;;;;;62.40;10.50;;;14.40;1.00;;;;;;5000632;28;20735;-67
2022/10/30 03:48:19;;;;;;;85.10;11.93;;;14.40;1.00;;;;;;4993247;28;20463;-68
2022/10/30 03:50:45;;;;;;;19.40;7.60;;;14.40;1.00;;;;;;5002016;28;20443;-67
2022/10/30 03:53:11;;;;;;;16.13;7.00;;;14.30;1.00;;;;;;5010881;28;20443;-69
2022/10/30 03:55:37;;;;;;;13.10;7.13;;;14.30;1.00;;;;;;4993485;28;20424;-68
2022/10/30 03:58:03;;;;;;;11.80;7.97;;;14.20;1.00;;;;;;5008177;28;20470;-68
2022/10/30 04:00:29;;;;;;;32.87;9.03;;;14.20;1.00;;;;;;4991028;28;20616;-67
2022/10/30 04:02:54;;;;;;;31.33;8.67;;;14.30;1.00;;;;;;4991383;28;20416;-68
2022/10/30 04:05:22;;;;;;;15.90;7.10;;;14.30;1.00;;;;;;4999500;28;20176;-68
2022/10/30 04:07:53;;;;;;;19.20;7.30;;;14.30;1.00;;;;;;5003422;28;20196;-66
2022/10/30 04:10:19;;;;;;;10.90;7.30;;;14.10;1.00;;;;;;5002166;28;20455;-67
2022/10/30 04:12:45;;;;;;;11.20;7.07;;;14.10;1.00;;;;;;5002259;28;20466;-66
2022/10/30 04:15:10;;;;;;;10.80;8.93;;;14.10;1.00;;;;;;5001877;28;20172;-66
2022/10/30 04:17:36;;;;;;;9.77;7.67;;;14.10;1.00;;;;;;5006319;28;20248;-66
2022/10/30 04:20:02;;;;;;;17.47;8.47;;;14.10;1.00;;;;;;4991139;28;20337;-69
2022/10/30 04:22:28;;;;;;;20.33;8.87;;;14.00;1.00;;;;;;4998227;28;20542;-69
2022/10/30 04:24:54;;;;;;;34.13;9.10;;;13.90;1.00;;;;;;5000072;28;20426;-69
2022/10/30 04:27:19;;;;;;;20.40;8.10;;;13.90;1.00;;;;;;5002993;28;20211;-68
2022/10/30 04:29:46;;;;;;;16.90;6.90;;;13.90;1.00;;;;;;5010617;28;20255;-66
2022/10/30 04:32:12;;;;;;;13.50;6.93;;;14.00;1.00;;;;;;4993142;28;20181;-67
2022/10/30 04:34:38;;;;;;;7.83;6.57;;;14.00;1.00;;;;;;4991245;28;20507;-69
2022/10/30 04:37:07;;;;;;;11.43;7.20;;;14.00;1.00;;;;;;5003313;28;20521;-66
2022/10/30 04:39:33;;;;;;;18.73;9.37;;;14.00;1.00;;;;;;5010388;28;20489;-69
2022/10/30 04:41:58;;;;;;;12.30;7.20;;;14.00;1.00;;;;;;5001756;28;20420;-69
2022/10/30 04:44:24;;;;;;;12.60;7.37;;;14.00;1.00;;;;;;5000549;28;20192;-69
2022/10/30 04:46:51;;;;;;;15.33;8.30;;;14.10;1.00;;;;;;5000928;28;20275;-68
2022/10/30 04:49:17;;;;;;;15.23;8.00;;;14.00;1.00;;;;;;5009763;28;20172;-67
2022/10/30 04:51:45;;;;;;;26.73;8.93;;;14.00;1.00;;;;;;5001159;28;20505;-69
2022/10/30 04:54:10;;;;;;;17.93;6.63;;;14.00;1.00;;;;;;5008357;28;20287;-68
2022/10/30 04:56:37;;;;;;;10.80;7.03;;;14.00;1.00;;;;;;4999203;28;20913;-69
2022/10/30 04:59:03;;;;;;;19.57;7.50;;;14.00;1.00;;;;;;4996191;28;20183;-69
2022/10/30 05:01:29;;;;;;;50.20;11.90;;;14.00;1.00;;;;;;5003496;28;20965;-69
2022/10/30 05:03:57;;;;;;;27.50;8.13;;;13.90;1.00;;;;;;5014499;28;20453;-69
2022/10/30 05:06:29;;;;;;;31.30;8.87;;;13.90;1.00;;;;;;4999234;28;20256;-69
2022/10/30 05:08:55;;;;;;;24.57;8.00;;;13.90;1.00;;;;;;5005303;28;20974;-69
2022/10/30 05:11:21;;;;;;;24.40;8.60;;;13.90;1.00;;;;;;4997741;28;20458;-69
2022/10/30 05:13:47;;;;;;;10.47;7.27;;;13.80;1.00;;;;;;5010153;28;20781;-69
2022/10/30 05:16:13;;;;;;;14.77;7.43;;;13.80;1.00;;;;;;5013338;28;20422;-69
2022/10/30 05:18:39;;;;;;;12.20;6.93;;;13.80;1.00;;;;;;4993851;28;20415;-68
2022/10/30 05:21:05;;;;;;;37.97;7.97;;;13.80;1.00;;;;;;4994679;28;20208;-65
2022/10/30 05:23:30;;;;;;;20.83;8.10;;;13.80;1.00;;;;;;5006417;28;20251;-68
2022/10/30 05:25:58;;;;;;;12.70;7.37;;;13.80;1.00;;;;;;5009237;28;20415;-66
2022/10/30 05:28:24;;;;;;;14.90;7.57;;;13.70;1.00;;;;;;4993674;28;20215;-65
2022/10/30 05:30:52;;;;;;;15.67;8.10;;;13.70;1.00;;;;;;4990361;28;20436;-66
2022/10/30 05:33:18;;;;;;;12.60;7.40;;;13.70;1.00;;;;;;4998058;28;20622;-66
2022/10/30 05:35:44;;;;;;;13.50;7.07;;;13.60;1.00;;;;;;4995591;28;20418;-66
2022/10/30 05:38:10;;;;;;;17.43;8.00;;;13.60;1.00;;;;;;5014660;28;20191;-65
2022/10/30 05:40:36;;;;;;;16.33;7.23;;;13.60;1.00;;;;;;5007006;28;20664;-65
2022/10/30 05:43:02;;;;;;;20.60;9.10;;;13.60;1.00;;;;;;4997381;28;20507;-65
2022/10/30 05:45:28;;;;;;;10.50;7.47;;;13.60;1.00;;;;;;5004456;28;20168;-65
2022/10/30 05:47:55;;;;;;;14.13;8.37;;;13.60;1.00;;;;;;5000826;28;20459;-67
2022/10/30 05:50:21;;;;;;;12.47;8.30;;;13.50;1.00;;;;;;5007861;28;20197;-64
2022/10/30 05:52:47;;;;;;;43.63;13.03;;;13.50;1.00;;;;;;4993149;28;20953;-64
2022/10/30 05:55:12;;;;;;;27.30;10.93;;;13.50;1.00;;;;;;5004448;28;20534;-63
2022/10/30 05:57:38;;;;;;;20.10;9.50;;;13.60;1.00;;;;;;5004109;28;20171;-66
2022/10/30 06:00:04;;;;;;;15.80;8.93;;;13.60;1.00;;;;;;5024699;28;20195;-67
2022/10/30 06:02:30;;;;;;;21.53;9.27;;;13.60;1.00;;;;;;4999725;28;20698;-66
2022/10/30 06:04:56;;;;;;;10.13;8.13;;;13.60;1.00;;;;;;4995933;28;20522;-67
2022/10/30 06:07:21;;;;;;;16.30;7.73;;;13.40;1.00;;;;;;5005365;28;20188;-68
2022/10/30 06:09:47;;;;;;;22.10;8.80;;;13.30;1.00;;;;;;5008434;28;20688;-69
2022/10/30 06:12:13;;;;;;;13.93;7.97;;;13.40;1.00;;;;;;5008870;28;20692;-70
2022/10/30 06:14:38;;;;;;;10.67;6.83;;;13.40;1.00;;;;;;5001873;28;20180;-68
2022/10/30 06:17:04;;;;;;;22.23;8.37;;;13.40;99.90;;;;;;5002316;28;20266;-68
2022/10/30 06:19:30;;;;;;;8.73;7.07;;;13.60;99.90;;;;;;5011112;28;20179;-69
2022/10/30 06:21:55;;;;;;;18.23;7.83;;;13.70;99.90;;;;;;5001455;28;20180;-69
2022/10/30 06:24:21;;;;;;;17.17;6.43;;;13.80;94.60;;;;;;4997574;28;20239;-69
2022/10/30 06:26:46;;;;;;;10.57;6.63;;;13.80;1.00;;;;;;5012319;28;20169;-67
2022/10/30 06:29:12;;;;;;;7.93;6.20;;;13.80;1.00;;;;;;4995597;28;20169;-68
2022/10/30 06:31:38;;;;;;;16.57;7.90;;;14.10;1.00;;;;;;5010290;28;20188;-68
2022/10/30 06:34:04;;;;;;;21.83;7.53;;;14.60;1.00;;;;;;4999969;28;20243;-68
2022/10/30 06:36:30;;;;;;;26.80;10.27;;;15.40;1.00;;;;;;5007971;28;20188;-67
2022/10/30 06:38:55;;;;;;;23.07;8.20;;;16.10;99.90;;;;;;4997234;28;20443;-69
2022/10/30 06:41:21;;;;;;;23.40;8.47;;;16.50;1.00;;;;;;5002039;28;20284;-68
2022/10/30 06:43:47;;;;;;;15.60;7.90;;;17.10;99.90;;;;;;5003806;28;20179;-69
2022/10/30 06:46:12;;;;;;;15.50;7.90;;;17.50;99.90;;;;;;5012310;28;20509;-68
2022/10/30 06:48:38;;;;;;;12.53;7.30;;;18.00;1.00;;;;;;5003204;28;20210;-70
2022/10/30 06:51:04;;;;;;;17.00;7.93;;;18.70;1.00;;;;;;5001499;28;20203;-68
2022/10/30 06:53:30;;;;;;;11.90;6.80;;;19.30;1.00;;;;;;4996639;28;20583;-67
2022/10/30 06:56:02;;;;;;;9.27;6.10;;;19.80;1.00;;;;;;4997827;28;20165;-67
2022/10/30 06:58:28;;;;;;;11.77;7.30;;;20.40;1.00;;;;;;4993334;28;20184;-68
2022/10/30 07:00:54;;;;;;;31.70;7.70;;;20.90;99.90;;;;;;5002669;28;20435;-68
2022/10/30 07:03:20;;;;;;;12.20;6.33;;;21.10;99.90;;;;;;5003660;28;20177;-68
2022/10/30 07:05:46;;;;;;;13.77;6.20;;;21.50;99.90;;;;;;5011888;28;20982;-68
2022/10/30 07:08:12;;;;;;;7.17;5.73;;;21.90;99.90;;;;;;5011319;28;20631;-67
2022/10/30 07:10:38;;;;;;;19.50;7.53;;;22.40;99.90;;;;;;4993842;28;20579;-67
2022/10/30 07:13:04;;;;;;;21.30;6.93;;;22.80;99.90;;;;;;5003241;28;20437;-67
2022/10/30 07:15:31;;;;;;;38.80;8.17;;;23.40;99.90;;;;;;5012131;28;20983;-69
2022/10/30 07:17:59;;;;;;;31.37;7.97;;;24.10;99.90;;;;;;5011366;28;20723;-69
2022/10/30 07:20:26;;;;;;;44.77;8.70;;;24.70;99.90;;;;;;5000748;28;20453;-68
2022/10/30 07:22:52;;;;;;;22.13;7.43;;;25.20;99.90;;;;;;4996898;28;20419;-70
2022/10/30 07:25:18;;;;;;;36.30;8.07;;;25.40;99.90;;;;;;4996563;28;20418;-70
2022/10/30 07:27:47;;;;;;;24.83;7.57;;;25.50;99.90;;;;;;5009492;28;20453;-67
2022/10/30 07:30:14;;;;;;;159.33;19.90;;;25.30;99.90;;;;;;4994260;28;20450;-68
2022/10/30 07:32:40;;;;;;;140.30;16.53;;;25.50;99.90;;;;;;5005814;28;20566;-68
2022/10/30 07:35:07;;;;;;;70.20;11.43;;;26.30;99.90;;;;;;4999624;28;20423;-68
2022/10/30 07:37:33;;;;;;;82.67;14.40;;;27.10;99.90;;;;;;5009841;28;20446;-69
2022/10/30 07:39:59;;;;;;;77.57;11.60;;;27.60;99.90;;;;;;5003253;28;20886;-66
2022/10/30 07:42:25;;;;;;;42.20;10.30;;;28.10;99.90;;;;;;4996922;28;20428;-67
2022/10/30 07:44:51;;;;;;;85.73;12.50;;;28.70;99.90;;;;;;5008287;28;20287;-69
2022/10/30 07:47:16;;;;;;;201.10;24.33;;;28.90;99.90;;;;;;5000450;28;20227;-68
2022/10/30 07:49:42;;;;;;;118.63;17.13;;;28.40;99.90;;;;;;4998162;28;20609;-68
2022/10/30 07:52:08;;;;;;;41.47;8.53;;;27.80;99.90;;;;;;4993874;28;20208;-69
2022/10/30 07:54:33;;;;;;;20.63;6.40;;;28.10;99.90;;;;;;4995996;28;20907;-68
2022/10/30 07:56:59;;;;;;;35.77;9.43;;;28.60;99.90;;;;;;5005194;28;20199;-68
2022/10/30 07:59:25;;;;;;;10.23;5.57;;;28.80;99.90;;;;;;4994472;28;20271;-68
2022/10/30 08:01:51;;;;;;;13.90;5.50;;;29.20;99.90;;;;;;4997673;28;20490;-68
2022/10/30 08:04:16;;;;;;;17.10;6.70;;;29.20;99.90;;;;;;4991910;28;20180;-69
2022/10/30 08:06:42;;;;;;;9.10;5.57;;;29.30;99.90;;;;;;5005701;28;20256;-68
2022/10/30 08:09:08;;;;;;;21.90;7.13;;;29.60;99.90;;;;;;4990889;28;20285;-68
2022/10/30 08:11:34;;;;;;;15.37;6.87;;;29.50;99.90;;;;;;4999103;28;20501;-69
2022/10/30 08:14:00;;;;;;;33.77;8.47;;;29.70;99.90;;;;;;4998332;28;20264;-68
2022/10/30 08:16:26;;;;;;;39.50;7.67;;;29.70;99.90;;;;;;4998920;28;20299;-67
2022/10/30 08:18:52;;;;;;;35.67;7.43;;;29.60;99.90;;;;;;4999618;28;20168;-68
2022/10/30 08:21:17;;;;;;;9.93;6.40;;;29.50;99.90;;;;;;4999453;28;20195;-68
2022/10/30 08:23:43;;;;;;;27.33;8.07;;;29.60;99.90;;;;;;5003886;28;20656;-68
2022/10/30 08:26:09;;;;;;;27.67;7.93;;;29.30;99.90;;;;;;4997514;28;20204;-69
2022/10/30 08:28:35;;;;;;;176.23;18.17;;;28.70;99.90;;;;;;4995071;28;20214;-69
2022/10/30 08:31:01;;;;;;;45.67;9.73;;;28.10;99.90;;;;;;4999053;28;20202;-68
2022/10/30 08:33:27;;;;;;;34.43;7.93;;;27.60;99.90;;;;;;5000441;28;20191;-70
2022/10/30 08:35:55;;;;;;;306.77;28.30;;;27.00;99.90;;;;;;4998243;28;20833;-69
2022/10/30 08:38:21;;;;;;;378.83;34.63;;;26.50;99.90;;;;;;4996332;28;20215;-69
2022/10/30 08:40:48;;;;;;;53.07;10.40;;;26.30;99.90;;;;;;4995598;28;20458;-67
2022/10/30 08:43:14;;;;;;;57.93;10.70;;;26.00;99.90;;;;;;4995875;28;20415;-69
2022/10/30 08:45:40;;;;;;;137.20;20.43;;;25.70;99.90;;;;;;4996218;28;20435;-70
2022/10/30 08:48:08;;;;;;;273.50;27.83;;;25.90;99.90;;;;;;4999333;28;20467;-68
2022/10/30 08:50:34;;;;;;;97.70;15.87;;;25.80;99.90;;;;;;4992046;28;20861;-69
2022/10/30 08:53:01;;;;;;;71.93;12.20;;;25.70;99.90;;;;;;5000175;28;20431;-69
2022/10/30 08:55:27;;;;;;;97.47;13.23;;;25.50;99.90;;;;;;4999614;28;20183;-67
2022/10/30 08:57:53;;;;;;;54.27;9.63;;;25.30;99.90;;;;;;5000011;28;20438;-68
2022/10/30 09:00:19;;;;;;;33.27;8.47;;;25.40;99.90;;;;;;4998550;28;20219;-68
2022/10/30 09:02:44;;;;;;;64.77;10.80;;;24.80;99.90;;;;;;5013678;28;20184;-68
2022/10/30 09:05:10;;;;;;;33.17;8.40;;;24.80;99.90;;;;;;4996662;28;20250;-70
2022/10/30 09:07:36;;;;;;;18.53;6.90;;;25.00;99.90;;;;;;5000224;28;20200;-69
2022/10/30 09:10:02;;;;;;;9.13;6.60;;;24.50;99.90;;;;;;4997685;28;20692;-68
2022/10/30 09:12:28;;;;;;;11.63;6.90;;;24.60;99.90;;;;;;4996679;28;20252;-69
2022/10/30 09:14:53;;;;;;;9.40;6.43;;;24.80;99.90;;;;;;4998694;28;20569;-67
2022/10/30 09:17:19;;;;;;;24.80;8.57;;;25.10;99.90;;;;;;4995305;28;20565;-67
2022/10/30 09:19:45;;;;;;;10.53;6.93;;;25.20;99.90;;;;;;4995011;28;20204;-70
2022/10/30 09:22:10;;;;;;;13.60;6.80;;;25.20;99.90;;;;;;4995852;28;20199;-68
2022/10/30 09:24:38;;;;;;;15.73;6.40;;;24.80;99.90;;;;;;4999580;28;20184;-69
2022/10/30 09:27:05;;;;;;;19.50;8.50;;;25.00;99.90;;;;;;4998906;28;20203;-67
2022/10/30 09:29:30;;;;;;;21.87;7.97;;;25.20;99.90;;;;;;4997860;28;20617;-68
2022/10/30 09:31:57;;;;;;;88.33;15.80;;;25.30;99.90;;;;;;4990783;28;20515;-69
2022/10/30 09:34:23;;;;;;;35.20;9.83;;;25.40;99.90;;;;;;4998886;28;20252;-67
2022/10/30 09:36:48;;;;;;;43.07;9.40;;;25.10;99.90;;;;;;4998354;28;20567;-68
2022/10/30 09:39:14;;;;;;;32.97;8.90;;;25.30;99.90;;;;;;4999096;28;20184;-68
2022/10/30 09:42:25;;;;;;;43.30;11.20;;;25.40;99.90;;;;;;4995850;28;20200;-68
2022/10/30 09:44:54;;;;;;;63.83;11.03;;;25.30;99.90;;;;;;4974726;28;20436;-69
2022/10/30 09:47:28;;;;;;;37.63;9.93;;;25.10;99.90;;;;;;4999067;28;20535;-69
2022/10/30 09:50:45;;;;;;;32.47;9.77;;;25.10;99.90;;;;;;4999668;28;20438;-69
2022/10/30 09:53:17;;;;;;;28.23;9.10;;;25.00;99.90;;;;;;4979166;28;20521;-69
2022/10/30 09:56:23;;;;;;;13.87;8.77;;;25.10;99.90;;;;;;4996889;28;20523;-68
2022/10/30 09:59:07;;;;;;;14.87;9.00;;;25.10;99.90;;;;;;4989123;28;20444;-68
2022/10/30 10:01:38;;;;;;;10.60;7.73;;;25.10;99.90;;;;;;5001298;28;20443;-68
2022/10/30 10:04:16;;;;;;;18.53;7.80;;;25.00;99.90;;;;;;5001326;28;20503;-68
2022/10/30 10:06:45;;;;;;;42.90;11.17;;;25.00;99.90;;;;;;4996453;28;21210;-68
2022/10/30 10:09:23;;;;;;;65.40;11.83;;;25.10;99.90;;;;;;5001928;28;21065;-68
2022/10/30 10:11:54;;;;;;;47.80;11.53;;;25.00;99.90;;;;;;4999526;28;20490;-67
2022/10/30 10:14:29;;;;;;;151.50;20.23;;;25.00;99.90;;;;;;4997600;28;20912;-67
2022/10/30 10:16:58;;;;;;;99.63;16.83;;;25.00;99.90;;;;;;5000473;28;20431;-67
2022/10/30 10:20:04;;;;;;;166.87;24.50;;;25.00;99.90;;;;;;5005161;28;20430;-69
2022/10/30 10:22:51;;;;;;;89.20;16.03;;;25.00;99.90;;;;;;4940469;29;21085;-62
2022/10/30 10:25:19;;;;;;;68.07;15.97;;;25.00;99.90;;;;;;4951146;29;20452;-69
2022/10/30 10:28:12;;;;;;;103.73;17.77;;;25.10;99.90;;;;;;4938665;29;21002;-66
2022/10/30 10:30:43;;;;;;;65.40;13.00;;;25.10;99.90;;;;;;4940064;29;20438;-68
2022/10/30 10:33:28;;;;;;;19.43;8.97;;;25.20;99.90;;;;;;4942917;29;20440;-66
2022/10/30 10:36:02;;;;;;;16.33;7.80;;;25.20;99.90;;;;;;4951726;29;20426;-63
2022/10/30 10:38:48;;;;;;;14.63;7.90;;;25.00;99.90;;;;;;4943283;29;20926;-68
2022/10/30 10:41:50;;;;;;;12.80;8.27;;;25.00;99.90;;;;;;4950320;29;20469;-64
2022/10/30 10:44:19;;;;;;;54.03;12.47;;;24.80;99.90;;;;;;4938418;29;20438;-66
2022/10/30 10:47:01;;;;;;;35.93;10.60;;;25.00;99.90;;;;;;4946831;29;20484;-65
2022/10/30 10:49:48;;;;;;;79.70;15.23;;;25.10;99.90;;;;;;4939527;29;20505;-65
2022/10/30 10:52:22;;;;;;;203.90;24.07;;;25.10;99.90;;;;;;4944746;28;20565;-65
2022/10/30 10:55:03;;;;;;;93.40;16.43;;;25.20;99.90;;;;;;5009681;28;20430;-65
2022/10/30 10:57:32;;;;;;;316.53;32.90;;;25.30;99.90;;;;;;4996213;28;20446;-65
2022/10/30 11:00:06;;;;;;;350.63;39.97;;;25.30;99.90;;;;;;5005762;28;20434;-65
2022/10/30 11:02:42;;;;;;;232.27;28.10;;;25.30;99.90;;;;;;5006045;28;20423;-64
2022/10/30 11:05:24;;;;;;;195.60;24.93;;;25.40;99.90;;;;;;4998736;28;20427;-67
2022/10/30 11:07:50;;;;;;;26.53;8.77;;;25.40;99.90;;;;;;4999987;28;20455;-66
2022/10/30 11:10:18;;;;;;;33.33;10.40;;;25.30;99.90;;;;;;4994354;28;20475;-67
2022/10/30 11:12:46;;;;;;;22.67;8.83;;;25.20;99.90;;;;;;5005360;28;20169;-68
2022/10/30 11:15:15;;;;;;;16.37;7.23;;;25.00;99.90;;;;;;5004372;28;20419;-67
2022/10/30 11:17:51;;;;;;;12.80;7.60;;;24.80;99.90;;;;;;4995914;28;20929;-66
2022/10/30 11:20:20;;;;;;;16.67;8.37;;;24.80;99.90;;;;;;4989748;28;21425;-72
2022/10/30 11:22:50;;;;;;;31.90;9.13;;;24.80;99.90;;;;;;4992048;28;20507;-66
2022/10/30 11:25:24;;;;;;;40.00;11.37;;;24.90;99.90;;;;;;4986302;28;20432;-65
2022/10/30 11:27:58;;;;;;;33.33;10.30;;;24.80;99.90;;;;;;4974660;28;20473;-69
2022/10/30 11:30:27;;;;;;;16.90;7.30;;;24.90;99.90;;;;;;4983588;28;20930;-64
2022/10/30 11:32:54;;;;;;;35.20;9.80;;;25.00;99.90;;;;;;5002340;28;20420;-67
2022/10/30 11:35:20;;;;;;;33.20;9.23;;;25.00;99.90;;;;;;4979176;28;20478;-68
2022/10/30 11:37:49;;;;;;;59.60;11.10;;;25.10;99.90;;;;;;4990911;28;20408;-64
2022/10/30 11:40:19;;;;;;;33.47;10.23;;;25.10;99.90;;;;;;4981004;28;20448;-65
2022/10/30 11:42:59;;;;;;;19.40;6.80;;;25.10;99.90;;;;;;4975112;28;20813;-68
2022/10/30 11:45:36;;;;;;;14.80;7.30;;;25.20;99.90;;;;;;4974624;28;20429;-67
2022/10/30 11:48:18;;;;;;;12.80;6.13;;;25.10;99.90;;;;;;4981451;28;20467;-67
2022/10/30 11:50:49;;;;;;;40.67;9.30;;;25.00;99.90;;;;;;4972944;28;20815;-66
2022/10/30 11:53:29;;;;;;;14.37;6.10;;;24.90;99.90;;;;;;4981989;28;20429;-67
2022/10/30 11:55:57;;;;;;;18.20;7.27;;;24.90;99.90;;;;;;4993415;28;20423;-67
2022/10/30 11:58:31;;;;;;;20.63;7.50;;;24.80;99.90;;;;;;4982209;28;20428;-64
2022/10/30 12:01:20;;;;;;;14.30;7.43;;;24.80;99.90;;;;;;4990158;28;20439;-66
2022/10/30 12:03:45;;;;;;;23.80;8.20;;;24.80;99.90;;;;;;4975981;28;20486;-68
2022/10/30 12:06:26;;;;;;;16.60;7.23;;;24.70;99.90;;;;;;4984518;28;20432;-64
2022/10/30 12:09:00;;;;;;;11.93;5.97;;;24.70;99.90;;;;;;4985163;28;20220;-67
2022/10/30 12:11:34;;;;;;;31.57;8.10;;;24.70;99.90;;;;;;4998776;28;20472;-66
2022/10/30 12:14:00;;;;;;;40.27;7.80;;;24.70;99.90;;;;;;4983912;28;20424;-64
2022/10/30 12:16:27;;;;;;;22.83;6.77;;;24.80;99.90;;;;;;4978794;28;20474;-70
2022/10/30 12:19:14;;;;;;;14.87;5.57;;;24.70;99.90;;;;;;4975646;28;20871;-65
2022/10/30 12:21:47;;;;;;;19.73;7.07;;;24.70;99.90;;;;;;4975363;28;20794;-68
2022/10/30 12:24:19;;;;;;;10.67;5.37;;;24.80;99.90;;;;;;4983874;28;20802;-68
2022/10/30 12:26:51;;;;;;;26.93;6.67;;;24.80;99.90;;;;;;4984382;28;20432;-67
2022/10/30 12:29:21;;;;;;;31.63;6.67;;;24.80;99.90;;;;;;4990910;28;20816;-68
2022/10/30 12:32:04;;;;;;;15.93;5.63;;;24.90;99.90;;;;;;4987918;28;20420;-67
2022/10/30 12:34:38;;;;;;;12.73;6.40;;;24.80;99.90;;;;;;4990120;28;20474;-67
2022/10/30 12:37:11;;;;;;;81.80;10.43;;;24.60;99.90;;;;;;4991167;28;20458;-67
2022/10/30 12:39:40;;;;;;;12.70;6.67;;;24.70;99.90;;;;;;4985651;28;20416;-69
2022/10/30 12:42:14;;;;;;;13.37;5.70;;;24.50;99.90;;;;;;4992745;28;20430;-69
2022/10/30 12:45:01;;;;;;;94.67;11.50;;;24.60;99.90;;;;;;4991592;28;20797;-67
2022/10/30 12:47:45;;;;;;;23.83;5.80;;;24.60;99.90;;;;;;4987393;28;20467;-69
2022/10/30 12:50:23;;;;;;;19.73;5.70;;;24.50;99.90;;;;;;4989671;28;20492;-68
2022/10/30 12:53:12;;;;;;;16.43;5.53;;;24.50;99.90;;;;;;4989840;28;20412;-69